Time;durP1;ratioP1;P1;durP2;ratioP2;P2;SDS_P1;SDS_P2;PMS_P1;PMS_P2;Temp;Humidity;BMP_temperature;BMP_pressure;BME280_temperature;BME280_humidity;BME280_pressure;Samples;Min_cycle;Max_cycle;Signal;HPM_P1;HPM_P2
2024/01/25 00:01:56;;;;;;;25.85;5.63;;;;;;;6.93;100.00;102549.91;5033558;28;20033;-73
2024/01/25 00:04:21;;;;;;;28.85;6.72;;;;;;;6.83;100.00;102530.50;5033520;28;20170;-74
2024/01/25 00:06:46;;;;;;;35.55;6.70;;;;;;;6.77;100.00;102539.06;5051348;28;20060;-73
2024/01/25 00:09:12;;;;;;;22.92;6.05;;;;;;;6.73;100.00;102548.34;5051241;28;20365;-73
2024/01/25 00:11:37;;;;;;;31.60;7.68;;;;;;;6.65;100.00;102542.88;5051298;28;20025;-75
2024/01/25 00:14:03;;;;;;;33.78;8.00;;;;;;;6.62;100.00;102538.72;5051345;28;20028;-74
2024/01/25 00:16:28;;;;;;;32.88;6.25;;;;;;;6.56;100.00;102538.47;5033383;28;20539;-75
2024/01/25 00:18:54;;;;;;;30.98;6.22;;;;;;;6.53;100.00;102539.59;5033413;28;20120;-73
2024/01/25 00:21:19;;;;;;;28.20;5.43;;;;;;;6.47;100.00;102540.19;5051093;28;20086;-74
2024/01/25 00:23:44;;;;;;;25.15;5.20;;;;;;;6.44;100.00;102533.34;5033273;28;20056;-74
2024/01/25 00:26:10;;;;;;;28.05;6.85;;;;;;;6.41;100.00;102523.00;5033079;28;20054;-73
2024/01/25 00:28:35;;;;;;;29.85;6.68;;;;;;;6.36;100.00;102537.69;5050939;28;20470;-73
2024/01/25 00:31:00;;;;;;;33.35;7.03;;;;;;;6.32;100.00;102550.41;5051070;28;20024;-74
2024/01/25 00:33:26;;;;;;;34.72;6.80;;;;;;;6.31;100.00;102542.59;5051077;28;20486;-73
2024/01/25 00:35:51;;;;;;;28.73;6.65;;;;;;;6.24;100.00;102536.19;5033118;28;20428;-73
2024/01/25 00:38:17;;;;;;;31.05;6.00;;;;;;;6.24;100.00;102542.34;5050962;28;20064;-73
2024/01/25 00:40:43;;;;;;;29.02;6.25;;;;;;;6.21;100.00;102546.13;5051020;28;20021;-73
2024/01/25 00:43:08;;;;;;;27.80;5.55;;;;;;;6.16;100.00;102540.41;5033097;28;20032;-74
2024/01/25 00:45:34;;;;;;;30.75;7.82;;;;;;;6.13;100.00;102537.19;5032984;28;20071;-74
2024/01/25 00:48:00;;;;;;;24.48;5.10;;;;;;;6.11;100.00;102540.00;5033016;28;20061;-73
2024/01/25 00:50:26;;;;;;;21.75;5.50;;;;;;;6.11;100.00;102540.00;5050872;28;20021;-73
2024/01/25 00:52:52;;;;;;;36.50;6.05;;;;;;;6.13;100.00;102545.16;5050927;28;20029;-74
2024/01/25 00:55:18;;;;;;;32.15;5.75;;;;;;;6.04;100.00;102549.50;5035790;28;20025;-74
2024/01/25 00:57:44;;;;;;;26.45;5.43;;;;;;;6.05;100.00;102555.63;5054100;28;20478;-74
2024/01/25 01:00:10;;;;;;;33.40;7.05;;;;;;;5.98;100.00;102552.72;5036501;28;20032;-75
2024/01/25 01:02:47;;;;;;;31.45;7.32;;;;;;;5.90;100.00;102553.44;5054497;28;20363;-74
2024/01/25 01:05:13;;;;;;;27.42;5.85;;;;;;;5.86;100.00;102559.97;5054182;28;20025;-74
2024/01/25 01:07:40;;;;;;;29.70;6.10;;;;;;;5.82;100.00;102557.75;5054087;28;20395;-74
2024/01/25 01:10:08;;;;;;;34.97;6.18;;;;;;;5.79;100.00;102564.19;5053944;28;20146;-73
2024/01/25 01:12:33;;;;;;;32.13;7.03;;;;;;;5.81;100.00;102562.22;5036144;28;20102;-74
2024/01/25 01:14:59;;;;;;;41.90;6.97;;;;;;;5.82;100.00;102561.25;5053774;28;20057;-74
2024/01/25 01:17:24;;;;;;;30.55;6.45;;;;;;;5.75;100.00;102565.41;5054006;28;20108;-74
2024/01/25 01:19:49;;;;;;;32.00;6.85;;;;;;;5.74;100.00;102577.00;5035890;28;20076;-75
2024/01/25 01:22:15;;;;;;;28.50;7.97;;;;;;;5.69;100.00;102571.28;5036118;28;20383;-75
2024/01/25 01:24:40;;;;;;;34.22;5.93;;;;;;;5.64;100.00;102570.03;5053918;28;20478;-75
2024/01/25 01:27:05;;;;;;;40.50;6.82;;;;;;;5.58;100.00;102566.13;5036017;28;20473;-74
2024/01/25 01:29:30;;;;;;;35.25;7.72;;;;;;;5.52;100.00;102561.38;5053782;28;20381;-74
2024/01/25 01:31:56;;;;;;;29.02;5.55;;;;;;;5.53;100.00;102573.66;5035671;28;20025;-74
2024/01/25 01:34:21;;;;;;;32.65;6.70;;;;;;;5.51;100.00;102572.97;5053709;28;20029;-74
2024/01/25 01:36:46;;;;;;;25.40;7.00;;;;;;;5.56;100.00;102581.34;5053856;28;20363;-75
2024/01/25 01:39:12;;;;;;;34.58;6.50;;;;;;;5.50;100.00;102574.78;5035761;28;20127;-74
2024/01/25 01:41:37;;;;;;;32.28;6.13;;;;;;;5.48;100.00;102584.66;5053691;28;20388;-72
2024/01/25 01:44:03;;;;;;;31.17;5.88;;;;;;;5.40;100.00;102586.34;5053615;28;20025;-74
2024/01/25 01:46:39;;;;;;;32.40;5.78;;;;;;;5.39;100.00;102587.31;5053549;28;20375;-73
2024/01/25 01:49:15;;;;;;;39.03;6.97;;;;;;;5.38;100.00;102585.63;5035437;28;20036;-73
2024/01/25 01:51:42;;;;;;;29.85;6.82;;;;;;;5.34;100.00;102592.19;5035521;28;20516;-74
2024/01/25 01:54:08;;;;;;;36.30;7.20;;;;;;;5.31;100.00;102609.22;5053311;28;20028;-73
2024/01/25 01:56:35;;;;;;;30.02;6.55;;;;;;;5.25;100.00;102604.47;5053296;28;20025;-74
2024/01/25 01:59:04;;;;;;;31.50;6.20;;;;;;;5.17;100.00;102601.63;5035528;28;20037;-74
2024/01/25 02:01:30;;;;;;;37.50;7.30;;;;;;;5.16;100.00;102616.69;5053285;28;20120;-74
2024/01/25 02:03:56;;;;;;;30.75;7.05;;;;;;;5.15;100.00;102606.22;5053277;28;20112;-74
2024/01/25 02:06:24;;;;;;;36.65;6.43;;;;;;;5.18;100.00;102612.09;5052860;28;20022;-75
2024/01/25 02:08:51;;;;;;;40.67;6.63;;;;;;;5.18;100.00;102617.41;5053147;28;20072;-74
2024/01/25 02:11:17;;;;;;;29.40;7.20;;;;;;;5.09;100.00;102615.56;5053140;28;20378;-74
2024/01/25 02:13:42;;;;;;;33.20;6.50;;;;;;;5.05;100.00;102635.38;5053133;28;20032;-74
2024/01/25 02:16:09;;;;;;;30.10;7.57;;;;;;;4.94;100.00;102631.00;5053112;28;20406;-74
2024/01/25 02:18:34;;;;;;;32.40;6.85;;;;;;;4.86;100.00;102627.31;5052717;28;20039;-74
2024/01/25 02:21:00;;;;;;;33.30;6.40;;;;;;;4.84;100.00;102631.91;5035192;28;20033;-74
2024/01/25 02:23:25;;;;;;;35.05;6.72;;;;;;;4.87;100.00;102631.66;5052890;28;20029;-74
2024/01/25 02:25:51;;;;;;;37.90;7.25;;;;;;;4.88;100.00;102628.03;5052940;28;20466;-74
2024/01/25 02:28:16;;;;;;;28.45;5.72;;;;;;;4.86;100.00;102633.47;5052922;28;20040;-74
2024/01/25 02:30:41;;;;;;;42.65;7.10;;;;;;;4.85;100.00;102636.25;5053034;28;20036;-74
2024/01/25 02:33:07;;;;;;;30.70;9.75;;;;;;;4.79;100.00;102637.63;5052894;28;20531;-74
2024/01/25 02:35:32;;;;;;;42.65;8.27;;;;;;;4.84;100.00;102640.72;5052797;28;20397;-74
2024/01/25 02:37:58;;;;;;;32.22;5.78;;;;;;;4.79;100.00;102634.13;5052819;28;20120;-74
2024/01/25 02:40:23;;;;;;;29.52;6.80;;;;;;;4.75;100.00;102628.25;5034943;28;20328;-75
2024/01/25 02:42:48;;;;;;;24.75;6.20;;;;;;;4.77;100.00;102630.78;5052919;28;20389;-74
2024/01/25 02:45:14;;;;;;;28.83;6.22;;;;;;;4.78;100.00;102637.75;5034915;28;20059;-74
2024/01/25 02:47:39;;;;;;;32.85;5.97;;;;;;;4.70;100.00;102637.56;5034947;28;20039;-74
2024/01/25 02:50:05;;;;;;;38.78;6.90;;;;;;;4.68;100.00;102637.72;5034928;28;20543;-75
2024/01/25 02:52:30;;;;;;;37.72;8.00;;;;;;;4.69;100.00;102633.25;5034709;28;20137;-75
2024/01/25 02:54:56;;;;;;;28.00;5.88;;;;;;;4.71;100.00;102631.31;5052732;28;20040;-75
2024/01/25 02:57:21;;;;;;;31.65;6.35;;;;;;;4.73;100.00;102624.06;5052606;28;20033;-74
2024/01/25 02:59:47;;;;;;;30.90;6.47;;;;;;;4.69;100.00;102631.44;5052499;28;20064;-74
2024/01/25 03:02:12;;;;;;;26.70;5.82;;;;;;;4.61;100.00;102631.22;5052587;28;20049;-74
2024/01/25 03:04:38;;;;;;;31.95;6.45;;;;;;;4.64;100.00;102637.13;5052381;28;20079;-74
2024/01/25 03:07:03;;;;;;;30.42;6.43;;;;;;;4.58;100.00;102624.38;5052493;28;20037;-75
2024/01/25 03:09:29;;;;;;;32.83;6.78;;;;;;;4.50;100.00;102632.16;5052623;28;20466;-74
2024/01/25 03:11:54;;;;;;;30.70;6.05;;;;;;;4.48;100.00;102633.25;5052412;28;20029;-74
2024/01/25 03:14:20;;;;;;;38.78;7.90;;;;;;;4.46;100.00;102628.09;5052314;28;20025;-74
2024/01/25 03:16:45;;;;;;;26.40;6.63;;;;;;;4.39;100.00;102628.75;5051317;28;20029;-74
2024/01/25 03:19:11;;;;;;;27.27;5.88;;;;;;;4.41;100.00;102626.81;5052664;28;20029;-75
2024/01/25 03:21:36;;;;;;;37.60;7.85;;;;;;;4.37;100.00;102625.38;5034267;28;20023;-74
2024/01/25 03:24:01;;;;;;;31.25;7.57;;;;;;;4.33;100.00;102614.19;5052224;28;20366;-75
2024/01/25 03:26:28;;;;;;;29.23;6.00;;;;;;;4.31;100.00;102621.44;5052150;28;20033;-74
2024/01/25 03:28:53;;;;;;;31.30;7.47;;;;;;;4.28;100.00;102621.69;5033982;28;20021;-74
2024/01/25 03:31:18;;;;;;;37.65;7.05;;;;;;;4.23;100.00;102619.44;5052178;28;20032;-74
2024/01/25 03:33:44;;;;;;;33.95;7.00;;;;;;;4.21;100.00;102624.00;5051899;28;20028;-74
2024/01/25 03:36:13;;;;;;;38.90;6.35;;;;;;;4.22;100.00;102630.16;5033988;28;20095;-74
2024/01/25 03:38:38;;;;;;;36.63;6.53;;;;;;;4.23;100.00;102634.47;5033829;28;20488;-74
2024/01/25 03:41:04;;;;;;;24.52;5.38;;;;;;;4.20;100.00;102627.63;5051896;28;20072;-74
2024/01/25 03:43:30;;;;;;;32.40;6.85;;;;;;;4.22;100.00;102640.75;5051763;28;20050;-74
2024/01/25 03:45:55;;;;;;;24.15;5.50;;;;;;;4.13;100.00;102629.13;5051806;28;20059;-74
2024/01/25 03:48:21;;;;;;;29.33;6.38;;;;;;;4.14;100.00;102648.50;5051738;28;20029;-74
2024/01/25 03:50:47;;;;;;;38.35;6.07;;;;;;;4.05;100.00;102644.81;5051703;28;20096;-73
2024/01/25 03:53:12;;;;;;;29.92;5.85;;;;;;;3.87;100.00;102635.72;5033758;28;20049;-74
2024/01/25 03:55:38;;;;;;;32.45;6.30;;;;;;;3.88;100.00;102640.88;5033672;28;20375;-73
2024/01/25 03:58:03;;;;;;;32.63;6.22;;;;;;;3.92;100.00;102644.13;5051485;28;20021;-73
2024/01/25 04:00:29;;;;;;;32.25;6.55;;;;;;;3.94;100.00;102643.03;5051479;28;20029;-73
2024/01/25 04:02:54;;;;;;;43.80;6.40;;;;;;;3.84;100.00;102642.09;5051389;28;20088;-74
2024/01/25 04:05:20;;;;;;;24.40;5.47;;;;;;;3.71;100.00;102634.31;5033476;28;20037;-74
2024/01/25 04:07:45;;;;;;;26.80;6.55;;;;;;;3.64;100.00;102637.59;5033645;28;20031;-73
2024/01/25 04:10:10;;;;;;;32.00;6.70;;;;;;;3.64;100.00;102635.78;5051597;28;20059;-73
2024/01/25 04:12:36;;;;;;;30.52;5.93;;;;;;;3.64;100.00;102653.47;5033472;28;20021;-74
2024/01/25 04:15:01;;;;;;;36.63;5.88;;;;;;;3.61;100.00;102657.19;5051369;28;20107;-73
2024/01/25 04:17:26;;;;;;;30.08;6.10;;;;;;;3.55;100.00;102654.22;5051337;28;20110;-74
2024/01/25 04:19:52;;;;;;;26.23;7.07;;;;;;;3.52;100.00;102649.16;5051219;28;20029;-74
2024/01/25 04:22:17;;;;;;;29.67;6.40;;;;;;;3.50;100.00;102651.94;5033445;28;20079;-73
2024/01/25 04:24:43;;;;;;;31.10;6.63;;;;;;;3.50;100.00;102653.75;5051153;28;20033;-74
2024/01/25 04:27:09;;;;;;;35.28;5.65;;;;;;;3.46;100.00;102658.41;5033278;28;20047;-73
2024/01/25 04:29:38;;;;;;;25.85;5.28;;;;;;;3.42;100.00;102646.41;5050991;28;20483;-74
2024/01/25 04:32:04;;;;;;;33.45;5.85;;;;;;;3.43;100.00;102654.22;5033190;28;20063;-73
2024/01/25 04:34:29;;;;;;;28.02;6.53;;;;;;;3.44;100.00;102639.19;5051085;28;20056;-73
2024/01/25 04:36:55;;;;;;;37.80;6.70;;;;;;;3.45;100.00;102640.03;5051191;28;20033;-73
2024/01/25 04:39:20;;;;;;;41.33;7.13;;;;;;;3.43;100.00;102645.44;5050895;28;20096;-73
2024/01/25 04:41:45;;;;;;;30.27;6.78;;;;;;;3.39;100.00;102651.94;5051072;28;20108;-73
2024/01/25 04:44:11;;;;;;;25.67;6.88;;;;;;;3.36;100.00;102645.09;5050944;28;20021;-73
2024/01/25 04:46:37;;;;;;;41.47;7.28;;;;;;;3.33;100.00;102642.69;5032943;28;20040;-73
2024/01/25 04:49:03;;;;;;;36.75;6.35;;;;;;;3.37;100.00;102641.50;5033159;28;20025;-73
2024/01/25 04:51:28;;;;;;;28.02;6.38;;;;;;;3.36;100.00;102642.44;5033110;28;20083;-73
2024/01/25 04:53:54;;;;;;;38.28;7.03;;;;;;;3.34;100.00;102628.53;5051052;28;20599;-74
2024/01/25 04:56:19;;;;;;;29.17;6.47;;;;;;;3.30;100.00;102637.66;5033204;28;20025;-74
2024/01/25 04:58:44;;;;;;;39.25;7.38;;;;;;;3.30;100.00;102647.41;5051042;28;20021;-73
2024/01/25 05:01:10;;;;;;;40.65;6.28;;;;;;;3.27;100.00;102645.00;5050895;28;20036;-73
2024/01/25 05:03:36;;;;;;;33.78;6.65;;;;;;;3.25;100.00;102642.47;5032917;28;20487;-74
2024/01/25 05:06:01;;;;;;;35.88;6.75;;;;;;;3.27;100.00;102656.41;5050628;28;20056;-73
2024/01/25 05:08:26;;;;;;;36.45;7.93;;;;;;;3.23;100.00;102647.06;5050708;28;20033;-73
2024/01/25 05:10:52;;;;;;;43.42;6.65;;;;;;;3.22;100.00;102644.53;5050600;28;20052;-73
2024/01/25 05:13:18;;;;;;;34.75;6.10;;;;;;;3.18;100.00;102649.22;5050653;28;20025;-73
2024/01/25 05:15:43;;;;;;;30.60;7.47;;;;;;;3.14;100.00;102629.25;5050649;28;20466;-74
2024/01/25 05:18:09;;;;;;;36.22;6.82;;;;;;;3.13;100.00;102630.22;5032570;28;20132;-74
2024/01/25 05:20:36;;;;;;;29.15;6.22;;;;;;;3.10;100.00;102627.81;5050567;28;20025;-73
2024/01/25 05:23:03;;;;;;;35.58;6.38;;;;;;;3.10;100.00;102627.81;5050447;28;20025;-73
2024/01/25 05:25:29;;;;;;;36.50;6.53;;;;;;;3.05;100.00;102625.53;5032415;28;20116;-73
2024/01/25 05:27:55;;;;;;;34.03;6.05;;;;;;;2.95;100.00;102619.31;5050478;28;20040;-73
2024/01/25 05:30:22;;;;;;;31.50;7.72;;;;;;;2.96;100.00;102636.84;5032463;28;20454;-73
2024/01/25 05:32:49;;;;;;;36.38;7.10;;;;;;;2.92;100.00;102631.94;5032652;28;20099;-74
2024/01/25 05:35:15;;;;;;;38.47;7.93;;;;;;;2.88;100.00;102639.22;5050351;28;20025;-74
2024/01/25 05:37:40;;;;;;;37.85;8.52;;;;;;;2.94;100.00;102630.84;5050326;28;20091;-73
2024/01/25 05:40:06;;;;;;;26.25;6.90;;;;;;;2.93;100.00;102628.31;5033715;28;20033;-74
2024/01/25 05:42:32;;;;;;;31.48;6.97;;;;;;;2.97;100.00;102624.47;5053710;28;20029;-75
2024/01/25 05:44:57;;;;;;;34.03;7.72;;;;;;;3.01;100.00;102637.31;5053777;28;20107;-75
2024/01/25 05:47:23;;;;;;;24.42;6.85;;;;;;;2.99;100.00;102638.41;5035801;28;20382;-74
2024/01/25 05:49:48;;;;;;;36.60;6.82;;;;;;;2.97;100.00;102635.88;5053602;28;20470;-74
2024/01/25 05:52:14;;;;;;;27.63;6.25;;;;;;;2.96;100.00;102644.78;5035755;28;20401;-74
2024/01/25 05:54:39;;;;;;;38.55;8.25;;;;;;;2.94;100.00;102661.72;5053450;28;20074;-75
2024/01/25 05:57:05;;;;;;;48.22;8.65;;;;;;;2.94;100.00;102654.63;5053464;28;20029;-72
2024/01/25 05:59:30;;;;;;;37.88;7.32;;;;;;;2.95;100.00;102658.09;5035652;28;20032;-73
2024/01/25 06:01:55;;;;;;;39.72;7.10;;;;;;;2.96;100.00;102659.78;5035471;28;20064;-74
2024/01/25 06:04:21;;;;;;;30.17;7.50;;;;;;;2.90;100.00;102649.69;5035516;28;20029;-73
2024/01/25 06:06:46;;;;;;;33.53;8.20;;;;;;;2.86;100.00;102648.22;5053289;28;20029;-73
2024/01/25 06:09:11;;;;;;;38.55;8.93;;;;;;;2.88;100.00;102659.50;5035355;28;20033;-74
2024/01/25 06:11:37;;;;;;;46.55;9.80;;;;;;;2.82;100.00;102652.91;5035372;28;20096;-72
2024/01/25 06:14:04;;;;;;;36.17;7.78;;;;;;;2.79;100.00;102647.88;5035391;28;20037;-73
2024/01/25 06:16:30;;;;;;;33.80;8.23;;;;;;;2.79;100.00;102647.88;5035456;28;20419;-73
2024/01/25 06:18:55;;;;;;;31.48;8.18;;;;;;;2.73;100.00;102643.06;5053146;28;20029;-73
2024/01/25 06:21:20;;;;;;;31.90;6.95;;;;;;;2.70;100.00;102649.44;5053364;28;20124;-72
2024/01/25 06:23:46;;;;;;;31.95;8.35;;;;;;;2.68;100.00;102650.50;5035399;28;20469;-71
2024/01/25 06:26:11;;;;;;;34.33;6.65;;;;;;;2.59;100.00;102652.03;5053107;28;20029;-74
2024/01/25 06:28:36;;;;;;;31.42;7.50;;;;;;;2.56;100.00;102654.06;5052985;28;20039;-74
2024/01/25 06:31:02;;;;;;;23.17;8.27;;;;;;;2.55;100.00;102647.09;5053084;28;20441;-75
2024/01/25 06:33:27;;;;;;;30.23;7.93;;;;;;;2.52;100.00;102656.09;5053645;28;20432;-74
2024/01/25 06:35:54;;;;;;;26.52;6.65;;;;;;;2.52;100.00;102666.66;5035147;28;20040;-75
2024/01/25 06:38:19;;;;;;;30.63;5.60;;;;;;;2.40;100.00;102675.53;5052859;28;20436;-74
2024/01/25 06:40:44;;;;;;;29.73;7.15;;;;;;;2.34;100.00;102684.75;5035036;28;20037;-75
2024/01/25 06:43:11;;;;;;;36.83;7.97;;;;;;;2.38;100.00;102680.91;5052667;28;20078;-75
2024/01/25 06:45:37;;;;;;;38.13;7.60;;;;;;;2.37;100.00;102673.97;5052982;28;20098;-74
2024/01/25 06:48:02;;;;;;;33.95;7.15;;;;;;;2.32;100.00;102668.19;5052998;28;20469;-74
2024/01/25 06:50:27;;;;;;;30.00;8.00;;;;;;;2.32;100.00;102670.84;5052702;28;20029;-74
2024/01/25 06:52:54;;;;;;;26.38;7.70;;;;;;;2.34;100.00;102676.00;5051733;28;20488;-74
2024/01/25 06:55:20;;;;;;;33.33;7.03;;;;;;;2.26;100.00;102680.97;5052621;28;20029;-74
2024/01/25 06:57:45;;;;;;;27.88;7.13;;;;;;;2.18;100.00;102677.13;5034681;28;20097;-74
2024/01/25 07:00:12;;;;;;;26.17;6.80;;;;;;;2.14;100.00;102678.31;5034706;28;20129;-73
2024/01/25 07:02:38;;;;;;;29.90;7.80;;;;;;;2.12;100.00;102671.47;5052662;28;20492;-73
2024/01/25 07:05:04;;;;;;;40.80;8.27;;;;;;;2.13;100.00;102673.16;5034546;28;20025;-73
2024/01/25 07:07:32;;;;;;;36.05;8.25;;;;;;;2.10;100.00;102671.59;5034601;28;20392;-74
2024/01/25 07:09:57;;;;;;;34.10;8.50;;;;;;;2.04;100.00;102682.59;5052828;28;20025;-74
2024/01/25 07:12:23;;;;;;;38.25;10.40;;;;;;;1.96;100.00;102679.66;5034568;28;20393;-74
2024/01/25 07:14:48;;;;;;;27.38;7.40;;;;;;;1.93;100.00;102677.25;5052538;28;20098;-74
2024/01/25 07:17:14;;;;;;;35.72;8.10;;;;;;;1.91;100.00;102673.88;5052456;28;20537;-74
2024/01/25 07:19:39;;;;;;;34.33;9.75;;;;;;;1.89;100.00;102665.25;5034487;28;20033;-74
2024/01/25 07:22:04;;;;;;;29.33;8.52;;;;;;;1.96;100.00;102669.09;5052396;28;20025;-73
2024/01/25 07:24:30;;;;;;;37.65;7.85;;;;;;;2.03;100.00;102669.50;5052349;28;20374;-74
2024/01/25 07:26:56;;;;;;;32.63;7.75;;;;;;;2.02;100.00;102678.34;5052230;28;20025;-74
2024/01/25 07:29:21;;;;;;;33.83;8.13;;;;;;;1.98;100.00;102674.25;5034641;28;20086;-78
2024/01/25 07:31:47;;;;;;;41.97;9.27;;;;;;;2.02;100.00;102683.63;5052282;28;20173;-80
2024/01/25 07:34:12;;;;;;;29.20;7.15;;;;;;;2.01;100.00;102676.66;5052151;28;20501;-77
2024/01/25 07:36:37;;;;;;;34.58;8.68;;;;;;;2.07;100.00;102702.63;5052507;28;20515;-74
2024/01/25 07:39:03;;;;;;;28.55;9.07;;;;;;;2.12;100.00;102705.75;5034030;28;20029;-76
2024/01/25 07:41:28;;;;;;;40.95;10.00;;;;;;;2.22;100.00;102698.84;5051969;28;20036;-77
2024/01/25 07:43:55;;;;;;;34.30;9.13;;;;;;;2.35;100.00;102696.16;5052255;28;20040;-75
2024/01/25 07:46:21;;;;;;;40.58;12.80;;;;;;;2.52;100.00;102697.50;5033965;28;20079;-76
2024/01/25 07:48:47;;;;;;;40.42;9.05;;;;;;;2.67;100.00;102681.34;5033996;28;20021;-73
2024/01/25 07:51:13;;;;;;;36.90;8.82;;;;;;;2.88;100.00;102678.00;5051978;28;20432;-75
2024/01/25 07:53:38;;;;;;;31.65;8.40;;;;;;;3.08;100.00;102674.66;5053762;28;20105;-78
2024/01/25 07:56:07;;;;;;;36.55;9.20;;;;;;;3.21;100.00;102669.28;5051953;28;20446;-75
2024/01/25 07:58:32;;;;;;;37.83;9.65;;;;;;;3.28;100.00;102676.59;5051810;28;20025;-75
2024/01/25 08:00:57;;;;;;;45.13;10.50;;;;;;;3.40;100.00;102675.63;5033966;28;20087;-76
2024/01/25 08:03:23;;;;;;;44.63;10.70;;;;;;;3.53;100.00;102687.88;5033728;28;20024;-78
2024/01/25 08:05:48;;;;;;;44.22;10.48;;;;;;;3.58;100.00;102698.94;5051769;28;20021;-79
2024/01/25 08:08:13;;;;;;;35.20;9.48;;;;;;;3.51;100.00;102684.53;5033902;28;20032;-74
2024/01/25 08:10:39;;;;;;;39.35;9.23;;;;;;;3.48;100.00;102695.34;5051715;28;20025;-74
2024/01/25 08:13:04;;;;;;;48.08;8.57;;;;;;;3.42;100.00;102694.00;5051636;28;20025;-74
2024/01/25 08:15:32;;;;;;;34.97;9.85;;;;;;;3.40;100.00;102688.84;5051966;28;20047;-74
2024/01/25 08:17:57;;;;;;;39.40;9.25;;;;;;;3.43;100.00;102691.22;5033469;28;20024;-74
2024/01/25 08:20:23;;;;;;;39.58;10.38;;;;;;;3.45;100.00;102685.81;5033526;28;20028;-77
2024/01/25 08:22:48;;;;;;;39.03;9.48;;;;;;;3.51;100.00;102700.38;5033883;28;20439;-77
2024/01/25 08:25:13;;;;;;;39.30;9.85;;;;;;;3.53;100.00;102706.38;5033555;28;20025;-73
2024/01/25 08:27:39;;;;;;;40.40;10.10;;;;;;;3.54;100.00;102700.97;5051337;28;20037;-77
2024/01/25 08:30:05;;;;;;;40.97;9.68;;;;;;;3.64;100.00;102693.13;5051323;28;20036;-73
2024/01/25 08:32:31;;;;;;;37.92;9.73;;;;;;;3.63;100.00;102670.28;5051444;28;20052;-73
2024/01/25 08:34:56;;;;;;;45.63;10.77;;;;;;;3.69;100.00;102659.22;5033324;28;20064;-73
2024/01/25 08:37:22;;;;;;;38.00;11.45;;;;;;;3.76;100.00;102670.13;5051328;28;20032;-75
2024/01/25 08:39:49;;;;;;;42.33;9.98;;;;;;;3.82;100.00;102667.84;5051087;28;20021;-74
2024/01/25 08:42:17;;;;;;;41.33;12.05;;;;;;;3.83;100.00;102674.81;5051223;28;20025;-73
2024/01/25 08:44:48;;;;;;;34.08;9.18;;;;;;;3.86;100.00;102671.94;5033395;28;20028;-74
2024/01/25 08:47:15;;;;;;;42.60;10.02;;;;;;;3.89;100.00;102682.25;5033223;28;20603;-74
2024/01/25 08:49:40;;;;;;;33.13;9.27;;;;;;;3.99;100.00;102691.13;5042938;28;20024;-74
2024/01/25 08:52:06;;;;;;;33.42;10.77;;;;;;;4.10;100.00;102705.31;5051050;28;20125;-74
2024/01/25 08:54:32;;;;;;;35.13;10.32;;;;;;;4.08;100.00;102704.59;5051018;28;20092;-74
2024/01/25 08:56:57;;;;;;;33.80;10.35;;;;;;;4.13;100.00;102707.69;5033360;28;20378;-75
2024/01/25 08:59:22;;;;;;;36.67;10.55;;;;;;;4.15;100.00;102711.06;5051003;28;20032;-75
2024/01/25 09:01:48;;;;;;;33.20;10.05;;;;;;;4.18;100.00;102705.50;5051126;28;20116;-76
2024/01/25 09:04:13;;;;;;;33.92;8.70;;;;;;;4.28;100.00;102703.78;5033213;28;20029;-75
2024/01/25 09:06:39;;;;;;;37.88;11.63;;;;;;;4.27;100.00;102715.34;5051199;28;20025;-75
2024/01/25 09:09:05;;;;;;;31.63;10.05;;;;;;;4.31;100.00;102712.28;5051003;28;20116;-74
2024/01/25 09:11:30;;;;;;;29.00;11.63;;;;;;;4.37;100.00;102708.31;5051059;28;20371;-75
2024/01/25 09:13:56;;;;;;;33.10;12.05;;;;;;;4.46;100.00;102712.84;5050880;28;20025;-75
2024/01/25 09:16:22;;;;;;;30.33;11.70;;;;;;;4.46;100.00;102710.19;5054019;28;20381;-74
2024/01/25 09:18:47;;;;;;;33.78;12.43;;;;;;;4.52;100.00;102717.63;5036439;28;20029;-74
2024/01/25 09:21:13;;;;;;;30.33;11.18;;;;;;;4.51;100.00;102710.66;5054101;28;20033;-74
2024/01/25 09:23:39;;;;;;;30.27;12.10;;;;;;;4.68;100.00;102719.84;5054879;28;20056;-74
2024/01/25 09:26:05;;;;;;;38.70;11.85;;;;;;;4.85;100.00;102713.09;5036125;28;20488;-73
2024/01/25 09:28:30;;;;;;;38.05;13.35;;;;;;;4.95;100.00;102720.16;5037034;28;20041;-71
2024/01/25 09:30:56;;;;;;;37.47;12.00;;;;;;;5.09;100.00;102721.63;5037879;28;20033;-75
2024/01/25 09:33:21;;;;;;;39.63;13.02;;;;;;;5.32;100.00;102730.25;5036495;28;20033;-73
2024/01/25 09:35:47;;;;;;;42.75;14.13;;;;;;;5.44;100.00;102718.56;5054254;28;20497;-74
2024/01/25 09:38:13;;;;;;;31.30;13.15;;;;;;;5.48;100.00;102708.50;5036200;28;20555;-73
2024/01/25 09:40:38;;;;;;;31.83;13.68;;;;;;;5.57;100.00;102716.53;5053938;28;20025;-72
2024/01/25 09:43:04;;;;;;;31.92;12.90;;;;;;;5.66;100.00;102719.34;5035944;28;20036;-73
2024/01/25 09:45:31;;;;;;;28.70;12.80;;;;;;;5.73;100.00;102712.50;5054022;28;20021;-74
2024/01/25 09:47:57;;;;;;;30.08;13.57;;;;;;;5.74;100.00;102720.31;5053917;28;20538;-72
2024/01/25 09:50:22;;;;;;;30.02;12.80;;;;;;;5.87;100.00;102726.25;5036105;28;20113;-73
2024/01/25 09:52:57;;;;;;;33.53;13.35;;;;;;;6.13;100.00;102725.75;5054021;28;20092;-72
2024/01/25 09:55:24;;;;;;;29.60;12.52;;;;;;;6.19;100.00;102727.84;5053992;28;20385;-73
2024/01/25 09:57:54;;;;;;;32.70;13.45;;;;;;;6.31;100.00;102724.06;5035572;28;20424;-74
2024/01/25 10:00:21;;;;;;;41.35;13.43;;;;;;;6.32;100.00;102723.09;5053796;28;20108;-75
2024/01/25 10:02:49;;;;;;;29.02;11.45;;;;;;;6.20;100.00;102726.88;5053560;28;20052;-74
2024/01/25 10:05:15;;;;;;;30.20;11.85;;;;;;;6.13;100.00;102720.44;5053869;28;20500;-74
2024/01/25 10:07:42;;;;;;;32.00;13.30;;;;;;;6.14;100.00;102714.16;5027691;28;20029;-73
2024/01/25 10:10:09;;;;;;;37.35;15.45;;;;;;;6.18;100.00;102710.25;5053661;28;20025;-74
2024/01/25 10:12:34;;;;;;;34.90;15.45;;;;;;;6.05;100.00;102699.03;5035620;28;20036;-75
2024/01/25 10:15:00;;;;;;;35.80;14.68;;;;;;;6.04;100.00;102679.59;5035433;28;20025;-75
2024/01/25 10:17:28;;;;;;;39.92;15.10;;;;;;;6.05;100.00;102694.56;5053266;28;20029;-73
2024/01/25 10:19:53;;;;;;;39.08;15.70;;;;;;;5.95;100.00;102690.22;5053457;28;20434;-72
2024/01/25 10:22:19;;;;;;;36.42;15.40;;;;;;;6.03;100.00;102706.31;5053389;28;20056;-74
2024/01/25 10:24:44;;;;;;;40.15;15.27;;;;;;;6.06;100.00;102712.16;5035481;28;20115;-72
2024/01/25 10:27:10;;;;;;;41.85;16.63;;;;;;;6.15;100.00;102705.22;5053282;28;20053;-72
2024/01/25 10:29:35;;;;;;;38.72;17.75;;;;;;;6.10;100.00;102710.94;5035498;28;20029;-74
2024/01/25 10:32:03;;;;;;;33.25;14.05;;;;;;;5.98;100.00;102692.59;5035387;28;20033;-74
2024/01/25 10:34:29;;;;;;;37.22;14.52;;;;;;;5.97;100.00;102682.97;5053259;28;20483;-72
2024/01/25 10:36:55;;;;;;;42.70;17.10;;;;;;;6.03;100.00;102682.41;5035311;28;20032;-73
2024/01/25 10:39:21;;;;;;;42.85;16.25;;;;;;;6.12;100.00;102678.94;5053203;28;20037;-74
2024/01/25 10:41:50;;;;;;;34.50;13.93;;;;;;;6.31;100.00;102678.06;5053202;28;20037;-75
2024/01/25 10:44:17;;;;;;;44.22;15.13;;;;;;;6.44;100.00;102678.63;5035110;28;20391;-73
2024/01/25 10:46:46;;;;;;;35.42;13.65;;;;;;;6.50;100.00;102673.59;5035072;28;20102;-74
2024/01/25 10:49:12;;;;;;;37.40;13.45;;;;;;;6.58;100.00;102677.34;5052944;28;20047;-74
2024/01/25 10:51:39;;;;;;;35.95;14.07;;;;;;;6.45;100.00;102669.69;5053100;28;20029;-74
2024/01/25 10:54:06;;;;;;;37.20;15.38;;;;;;;6.46;100.00;102666.88;5052923;28;20040;-75
2024/01/25 10:56:32;;;;;;;43.50;14.93;;;;;;;6.59;100.00;102660.41;5052750;28;20033;-73
2024/01/25 10:58:59;;;;;;;39.60;14.32;;;;;;;6.61;100.00;102647.81;5034808;28;20059;-74
2024/01/25 11:01:27;;;;;;;34.30;13.75;;;;;;;6.64;100.00;102653.69;5034787;28;20124;-74
2024/01/25 11:03:53;;;;;;;41.22;13.65;;;;;;;6.79;100.00;102654.91;5053143;28;20028;-73
2024/01/25 11:06:21;;;;;;;35.33;13.45;;;;;;;6.93;100.00;102642.13;5034874;28;20028;-74
2024/01/25 11:08:46;;;;;;;35.35;15.23;;;;;;;6.98;100.00;102645.22;5034982;28;20025;-74